createdAt,value
2017-09-04T00:02:25.046Z,87.40
2017-09-04T00:04:54.370Z,87.40
2017-09-04T00:07:23.701Z,87.60
2017-09-04T00:09:53.086Z,87.70
2017-09-04T00:12:22.358Z,87.60
2017-09-04T00:14:51.627Z,87.60
2017-09-04T00:17:20.875Z,87.60
2017-09-04T00:19:50.226Z,87.50
2017-09-04T00:22:19.478Z,87.40
2017-09-04T00:24:48.788Z,87.50
2017-09-04T00:27:18.067Z,87.10
2017-09-04T00:29:47.324Z,88.20
2017-09-04T00:32:16.626Z,87.40
2017-09-04T00:34:45.893Z,87.50
2017-09-04T00:37:15.323Z,87.60
2017-09-04T00:39:45.201Z,87.70
2017-09-04T00:42:14.445Z,87.80
2017-09-04T00:44:43.743Z,87.60
2017-09-04T00:47:13.314Z,87.60
2017-09-04T00:49:42.553Z,87.40
2017-09-04T00:52:11.793Z,87.40
2017-09-04T00:54:41.061Z,87.40
2017-09-04T00:57:10.325Z,87.40
2017-09-04T00:59:40.345Z,87.30
2017-09-04T01:02:09.745Z,87.00
2017-09-04T01:04:39.050Z,87.20
2017-09-04T01:07:08.341Z,87.40
2017-09-04T01:09:37.652Z,88.20
2017-09-04T01:12:07.163Z,88.20
2017-09-04T01:14:36.405Z,87.50
2017-09-04T01:17:05.657Z,87.40
2017-09-04T01:19:35.067Z,87.50
2017-09-04T01:22:04.375Z,87.70
2017-09-04T01:24:33.637Z,87.90
2017-09-04T01:27:02.895Z,88.00
2017-09-04T01:29:32.174Z,87.70
2017-09-04T01:32:01.432Z,87.70
2017-09-04T01:34:30.700Z,87.60
2017-09-04T01:36:59.983Z,87.50
2017-09-04T01:39:29.217Z,87.30
2017-09-04T01:41:58.470Z,87.80
2017-09-04T01:44:27.872Z,87.60
2017-09-04T01:46:57.114Z,87.70
2017-09-04T01:49:26.375Z,87.60
2017-09-04T01:51:55.634Z,87.50
2017-09-04T01:54:24.910Z,87.50
2017-09-04T01:56:54.158Z,88.70
2017-09-04T01:59:23.473Z,88.80
2017-09-04T02:01:52.725Z,88.90
2017-09-04T02:04:22.006Z,89.00
2017-09-04T02:06:51.394Z,89.30
2017-09-04T02:09:21.433Z,89.30
2017-09-04T02:11:51.009Z,89.30
2017-09-04T02:14:20.305Z,89.20
2017-09-04T02:16:49.613Z,89.40
2017-09-04T02:19:19.566Z,89.00
2017-09-04T02:21:48.809Z,89.60
2017-09-04T02:24:18.069Z,88.90
2017-09-04T02:26:47.321Z,88.70
2017-09-04T02:29:16.579Z,88.40
2017-09-04T02:31:46.066Z,88.30
2017-09-04T02:34:15.286Z,88.20
2017-09-04T02:36:44.662Z,88.40
2017-09-04T02:39:13.949Z,88.30
2017-09-04T02:41:43.250Z,88.10
2017-09-04T02:44:13.353Z,88.20
2017-09-04T02:46:42.597Z,88.10
2017-09-04T02:49:11.894Z,88.30
2017-09-04T02:51:41.177Z,88.20
2017-09-04T02:54:10.441Z,88.30
2017-09-04T02:56:39.708Z,88.30
2017-09-04T02:59:08.973Z,88.40
2017-09-04T03:01:38.467Z,88.40
2017-09-04T03:04:07.709Z,88.70
2017-09-04T03:06:36.985Z,89.00
2017-09-04T03:09:06.226Z,89.00
2017-09-04T03:11:35.503Z,89.30
2017-09-04T03:14:04.766Z,89.10
2017-09-04T03:16:34.004Z,89.10
2017-09-04T03:19:03.584Z,89.20
2017-09-04T03:21:32.960Z,89.10
2017-09-04T03:24:02.205Z,89.40
2017-09-04T03:26:32.235Z,89.10
2017-09-04T03:29:01.482Z,89.10
2017-09-04T03:31:30.738Z,88.80
2017-09-04T03:34:00.002Z,89.10
2017-09-04T03:36:29.245Z,88.90
2017-09-04T03:38:58.509Z,89.20
2017-09-04T03:41:28.558Z,89.20
2017-09-04T03:43:57.858Z,89.80
2017-09-04T03:46:27.133Z,89.60
2017-09-04T03:48:56.390Z,89.50
2017-09-04T03:51:25.647Z,89.60
2017-09-04T03:53:54.883Z,89.40
2017-09-04T03:56:24.134Z,89.70
2017-09-04T03:58:53.381Z,89.80
2017-09-04T04:01:22.641Z,90.00
2017-09-04T04:03:52.022Z,90.00
2017-09-04T04:06:21.366Z,90.00
2017-09-04T04:08:50.614Z,90.10
2017-09-04T04:11:19.933Z,89.90
2017-09-04T04:13:49.196Z,89.90
2017-09-04T04:16:18.445Z,90.20
2017-09-04T04:18:48.942Z,89.40
2017-09-04T04:21:18.181Z,89.50
2017-09-04T04:23:47.450Z,89.60
2017-09-04T04:26:16.709Z,89.70
2017-09-04T04:28:46.817Z,89.50
2017-09-04T04:31:16.223Z,89.50
2017-09-04T04:33:45.510Z,89.50
2017-09-04T04:36:14.774Z,89.40
2017-09-04T04:38:44.013Z,89.20
2017-09-04T04:41:13.441Z,88.90
2017-09-04T04:43:42.698Z,89.10
2017-09-04T04:46:12.013Z,89.00
2017-09-04T04:48:42.129Z,89.00
2017-09-04T04:51:11.593Z,89.30
2017-09-04T04:53:41.038Z,89.60
2017-09-04T04:56:10.282Z,89.70
2017-09-04T04:58:39.742Z,89.70
2017-09-04T05:01:08.985Z,89.70
2017-09-04T05:03:38.241Z,89.60
2017-09-04T05:06:07.515Z,89.30
2017-09-04T05:08:36.756Z,88.80
2017-09-04T05:11:06.042Z,88.90
2017-09-04T05:13:35.301Z,88.80
2017-09-04T05:16:04.537Z,89.40
2017-09-04T05:18:33.836Z,88.10
2017-09-04T05:21:03.085Z,86.50
2017-09-04T05:23:32.350Z,86.20
2017-09-04T05:26:01.594Z,85.80
2017-09-04T05:28:30.940Z,85.90
2017-09-04T05:31:00.223Z,85.30
2017-09-04T05:33:29.466Z,85.00
2017-09-04T05:35:58.730Z,84.70
2017-09-04T05:38:27.986Z,84.40
2017-09-04T05:40:57.287Z,83.90
2017-09-04T05:43:26.527Z,83.70
2017-09-04T05:45:55.777Z,83.00
2017-09-04T05:48:25.051Z,82.30
2017-09-04T05:50:54.492Z,81.80
2017-09-04T05:53:23.742Z,81.20
2017-09-04T05:55:53.009Z,81.10
2017-09-04T05:58:22.273Z,80.50
2017-09-04T06:00:51.535Z,80.30
2017-09-04T06:03:20.793Z,80.00
2017-09-04T06:05:50.051Z,79.50
2017-09-04T06:08:19.318Z,79.60
2017-09-04T06:10:48.594Z,78.70
2017-09-04T06:13:22.615Z,78.50
2017-09-04T06:15:51.974Z,77.90
2017-09-04T06:18:21.257Z,76.80
2017-09-04T06:20:50.714Z,74.90
2017-09-04T06:23:20.111Z,69.50
2017-09-04T06:25:49.376Z,62.20
2017-09-04T06:28:18.611Z,57.30
2017-09-04T06:30:47.874Z,53.20
2017-09-04T06:33:17.153Z,49.00
2017-09-04T06:35:46.418Z,45.80
2017-09-04T06:38:15.714Z,43.00
2017-09-04T06:40:45.030Z,40.30
2017-09-04T06:43:14.318Z,38.70
2017-09-04T06:45:43.636Z,37.10
2017-09-04T06:48:13.171Z,38.10
2017-09-04T06:50:42.431Z,39.90
2017-09-04T06:53:11.761Z,41.40
2017-09-04T06:55:41.177Z,43.00
2017-09-04T06:58:10.546Z,44.30
2017-09-04T07:00:40.620Z,45.50
2017-09-04T07:03:09.863Z,46.40
2017-09-04T07:05:39.114Z,45.50
2017-09-04T07:08:08.384Z,43.20
2017-09-04T07:10:37.869Z,43.00
2017-09-04T07:13:08.817Z,42.10
2017-09-04T07:15:38.121Z,41.80
2017-09-04T07:18:07.747Z,41.40
2017-09-04T07:20:36.989Z,41.70
2017-09-04T07:23:06.256Z,43.00
2017-09-04T07:25:35.499Z,44.40
2017-09-04T07:28:04.769Z,45.70
2017-09-04T07:30:34.097Z,46.90
2017-09-04T07:33:03.585Z,47.70
2017-09-04T07:35:32.847Z,48.20
2017-09-04T07:38:02.246Z,48.50
2017-09-04T07:40:31.546Z,48.60
2017-09-04T07:43:00.801Z,48.10
2017-09-04T07:45:30.047Z,46.60
2017-09-04T07:47:59.331Z,44.70
2017-09-04T07:50:28.616Z,43.80
2017-09-04T07:52:57.990Z,41.80
2017-09-04T07:55:27.242Z,41.90
2017-09-04T07:57:56.532Z,38.30
2017-09-04T08:00:25.949Z,37.20
2017-09-04T08:02:55.217Z,32.30
2017-09-04T08:05:24.477Z,30.00
2017-09-04T08:07:53.949Z,29.20
2017-09-04T08:10:23.353Z,28.00
2017-09-04T08:12:52.613Z,27.00
2017-09-04T08:15:21.853Z,26.40
2017-09-04T08:17:51.133Z,26.20
2017-09-04T08:20:20.374Z,26.00
2017-09-04T08:22:49.633Z,25.60
2017-09-04T08:25:18.899Z,25.70
2017-09-04T08:27:48.167Z,24.70
2017-09-04T08:30:17.434Z,24.90
2017-09-04T08:32:46.775Z,24.90
2017-09-04T08:35:16.037Z,25.30
2017-09-04T08:37:45.320Z,25.10
2017-09-04T08:40:14.617Z,25.80
2017-09-04T08:42:43.883Z,27.30
2017-09-04T08:45:13.209Z,28.90
2017-09-04T08:47:42.794Z,28.40
2017-09-04T08:50:12.084Z,28.00
2017-09-04T08:52:41.328Z,28.00
2017-09-04T08:55:10.586Z,28.10
2017-09-04T08:57:40.303Z,27.70
2017-09-04T09:00:09.559Z,27.00
2017-09-04T09:02:38.818Z,28.00
2017-09-04T09:05:08.196Z,28.30
2017-09-04T09:07:37.462Z,26.10
2017-09-04T09:10:06.732Z,25.90
2017-09-04T09:12:35.998Z,26.40
2017-09-04T09:15:05.272Z,25.30
2017-09-04T09:17:34.804Z,25.30
2017-09-04T09:20:04.053Z,26.10
2017-09-04T09:22:33.325Z,27.10
2017-09-04T09:25:03.046Z,27.30
2017-09-04T09:27:32.316Z,26.90
2017-09-04T09:30:01.578Z,26.40
2017-09-04T09:32:30.802Z,28.60
2017-09-04T09:35:00.139Z,27.40
2017-09-04T09:37:29.403Z,27.90
2017-09-04T09:39:58.733Z,27.30
2017-09-04T09:42:28.852Z,26.40
2017-09-04T09:44:58.370Z,26.30
2017-09-04T09:47:27.849Z,25.70
2017-09-04T09:49:57.202Z,24.30
2017-09-04T09:52:26.484Z,24.80
2017-09-04T09:54:55.929Z,24.90
2017-09-04T09:57:25.190Z,24.70
2017-09-04T09:59:54.437Z,24.90
2017-09-04T10:02:23.706Z,25.00
2017-09-04T10:04:52.955Z,25.30
2017-09-04T10:07:22.189Z,27.50
2017-09-04T10:09:51.467Z,24.40
2017-09-04T10:12:20.717Z,24.40
2017-09-04T10:14:50.261Z,25.20
2017-09-04T10:17:19.482Z,24.70
2017-09-04T10:19:48.758Z,26.10
2017-09-04T10:22:17.994Z,23.80
2017-09-04T10:24:47.235Z,25.30
2017-09-04T10:27:16.503Z,24.30
2017-09-04T10:29:45.768Z,24.10
2017-09-04T10:32:15.006Z,24.80
2017-09-04T10:34:44.254Z,26.40
2017-09-04T10:37:13.511Z,24.20
2017-09-04T10:39:42.765Z,24.50
2017-09-04T10:42:12.123Z,24.40
2017-09-04T10:44:41.377Z,24.60
2017-09-04T10:47:10.710Z,23.90
2017-09-04T10:49:40.185Z,24.20
2017-09-04T10:52:09.451Z,24.20
2017-09-04T10:54:38.685Z,25.00
2017-09-04T10:57:07.939Z,23.80
2017-09-04T10:59:37.207Z,24.00
2017-09-04T11:02:06.594Z,24.80
2017-09-04T11:04:35.828Z,26.60
2017-09-04T11:07:05.102Z,28.60
2017-09-04T11:09:38.187Z,29.40
2017-09-04T11:12:07.436Z,30.50
2017-09-04T11:14:36.884Z,31.30
2017-09-04T11:17:06.154Z,33.30
2017-09-04T11:19:35.543Z,35.40
2017-09-04T11:22:04.798Z,33.00
2017-09-04T11:24:34.850Z,33.00
2017-09-04T11:27:04.096Z,32.90
2017-09-04T11:29:33.363Z,32.60
2017-09-04T11:32:02.679Z,29.60
2017-09-04T11:34:31.960Z,31.20
2017-09-04T11:37:01.282Z,31.00
2017-09-04T11:39:30.586Z,30.20
2017-09-04T11:41:59.831Z,29.40
2017-09-04T11:44:29.089Z,29.60
2017-09-04T11:46:59.382Z,30.20
2017-09-04T11:49:28.757Z,30.80
2017-09-04T11:51:58.011Z,32.70
2017-09-04T11:54:27.263Z,33.70
2017-09-04T11:56:56.491Z,34.10
2017-09-04T11:59:25.754Z,37.90
2017-09-04T12:01:55.021Z,37.20
2017-09-04T12:04:24.252Z,37.40
2017-09-04T12:06:53.518Z,38.00
2017-09-04T12:09:22.760Z,39.00
2017-09-04T12:11:52.021Z,38.40
2017-09-04T12:14:21.261Z,38.80
2017-09-04T12:16:50.529Z,43.70
2017-09-04T12:19:19.789Z,36.70
2017-09-04T12:21:49.225Z,34.70
2017-09-04T12:24:18.474Z,36.50
2017-09-04T12:26:47.718Z,37.20
2017-09-04T12:29:16.977Z,37.50
2017-09-04T12:31:47.010Z,37.70
2017-09-04T12:34:16.281Z,37.60
2017-09-04T12:36:45.524Z,40.90
2017-09-04T12:39:14.784Z,43.30
2017-09-04T12:44:19.323Z,42.50
2017-09-04T12:46:48.582Z,41.50
2017-09-04T12:49:17.981Z,42.50
2017-09-04T12:51:47.262Z,42.70
2017-09-04T12:54:17.101Z,43.40
2017-09-04T12:56:46.627Z,40.80
2017-09-04T12:59:15.902Z,40.00
2017-09-04T13:01:45.238Z,37.00
2017-09-04T13:04:14.483Z,38.70
2017-09-04T13:06:43.769Z,39.80
2017-09-04T13:09:13.017Z,39.80
2017-09-04T13:11:58.089Z,37.40
2017-09-04T13:14:32.914Z,36.60
2017-09-04T13:17:07.414Z,37.20
2017-09-04T13:19:42.078Z,36.90
2017-09-04T13:22:16.906Z,36.40
2017-09-04T13:24:51.744Z,36.70
2017-09-04T13:27:26.583Z,36.80
2017-09-04T13:29:58.537Z,38.60
2017-09-04T13:35:43.531Z,37.30
2017-09-04T13:38:18.245Z,38.10
2017-09-04T13:40:53.129Z,38.60
2017-09-04T13:46:28.867Z,39.00
2017-09-04T13:49:03.822Z,39.10
2017-09-04T13:51:38.690Z,39.10
2017-09-04T13:57:25.565Z,38.90
2017-09-04T14:00:00.390Z,41.10
2017-09-04T14:02:35.789Z,41.60
2017-09-04T14:08:26.758Z,41.40
2017-09-04T14:11:00.414Z,42.00
2017-09-04T14:13:29.658Z,40.20
2017-09-04T14:16:04.206Z,40.30
2017-09-04T14:18:33.578Z,41.20
2017-09-04T14:21:04.100Z,41.80
2017-09-04T14:23:33.372Z,41.70
2017-09-04T14:26:02.721Z,39.40
2017-09-04T14:28:32.843Z,40.30
2017-09-04T14:31:02.173Z,41.50
2017-09-04T14:33:31.446Z,42.40
2017-09-04T14:36:00.711Z,43.60
2017-09-04T14:38:29.978Z,43.80
2017-09-04T14:44:08.514Z,44.50
2017-09-04T14:46:51.374Z,46.40
2017-09-04T14:49:20.762Z,45.60
2017-09-04T14:51:50.001Z,46.90
2017-09-04T14:54:19.262Z,47.30
2017-09-04T14:56:49.273Z,47.50
2017-09-04T14:59:18.522Z,47.40
2017-09-04T15:01:47.834Z,47.60
2017-09-04T15:04:17.107Z,47.90
2017-09-04T15:06:46.363Z,48.40
2017-09-04T15:09:15.608Z,48.30
2017-09-04T15:11:44.868Z,48.90
2017-09-04T15:14:14.110Z,50.00
2017-09-04T15:16:43.386Z,48.80
2017-09-04T15:19:12.837Z,48.50
2017-09-04T15:21:42.117Z,49.10
2017-09-04T15:24:11.346Z,48.90
2017-09-04T15:26:40.587Z,48.30
2017-09-04T15:29:09.878Z,48.40
2017-09-04T15:31:39.121Z,48.90
2017-09-04T15:34:08.376Z,48.60
2017-09-04T15:36:37.678Z,48.40
2017-09-04T15:39:06.923Z,49.30
2017-09-04T15:41:36.183Z,49.00
2017-09-04T15:44:05.427Z,48.20
2017-09-04T15:46:35.497Z,47.60
2017-09-04T15:49:04.731Z,48.10
2017-09-04T15:51:34.818Z,48.50
2017-09-04T15:54:04.273Z,48.40
2017-09-04T15:56:33.605Z,47.40
2017-09-04T15:59:02.911Z,48.20
2017-09-04T16:01:32.158Z,48.40
2017-09-04T16:04:01.650Z,49.30
2017-09-04T16:06:31.384Z,48.70
2017-09-04T16:09:00.617Z,48.60
2017-09-04T16:11:29.939Z,48.10
2017-09-04T16:14:00.203Z,48.90
2017-09-04T16:16:31.289Z,49.30
2017-09-04T16:19:03.088Z,50.10
2017-09-04T16:21:33.118Z,52.80
2017-09-04T16:24:18.110Z,52.10
2017-09-04T16:26:55.068Z,51.90
2017-09-04T16:29:25.510Z,53.10
2017-09-04T16:31:57.743Z,52.60
2017-09-04T16:34:42.796Z,52.00
2017-09-04T16:40:18.819Z,52.30
2017-09-04T16:42:58.878Z,53.60
2017-09-04T16:45:31.016Z,52.50
2017-09-04T16:51:07.271Z,52.90
2017-09-04T16:53:37.047Z,57.10
2017-09-04T16:56:06.301Z,57.20
2017-09-04T16:58:35.574Z,58.90
2017-09-04T17:01:04.846Z,59.40
2017-09-04T17:03:34.752Z,59.60
2017-09-04T17:06:04.090Z,59.90
2017-09-04T17:08:33.805Z,60.30
2017-09-04T17:11:03.069Z,61.40
2017-09-04T17:13:33.479Z,62.30
2017-09-04T17:16:02.770Z,64.00
2017-09-04T17:18:32.065Z,62.40
2017-09-04T17:21:16.189Z,63.20
2017-09-04T17:23:45.504Z,64.00
2017-09-04T17:26:14.734Z,64.00
2017-09-04T17:28:45.034Z,65.00
2017-09-04T17:31:14.301Z,64.70
2017-09-04T17:33:43.557Z,65.00
2017-09-04T17:36:12.821Z,65.40
2017-09-04T17:38:42.088Z,65.60
2017-09-04T17:41:11.377Z,66.10
2017-09-04T17:43:40.605Z,66.90
2017-09-04T17:46:09.857Z,68.00
2017-09-04T17:48:39.139Z,68.00
2017-09-04T17:51:08.491Z,68.00
2017-09-04T17:53:37.902Z,67.80
2017-09-04T17:56:07.248Z,68.80
2017-09-04T17:58:36.635Z,69.50
2017-09-04T18:01:05.890Z,70.90
2017-09-04T18:03:35.166Z,70.90
2017-09-04T18:06:04.425Z,70.60
2017-09-04T18:08:33.797Z,71.10
2017-09-04T18:11:03.046Z,71.30
2017-09-04T18:13:32.311Z,72.00
2017-09-04T18:16:01.555Z,72.70
2017-09-04T18:18:30.824Z,71.30
2017-09-04T18:21:00.075Z,71.60
2017-09-04T18:23:29.338Z,72.10
2017-09-04T18:25:58.620Z,72.20
2017-09-04T18:28:28.019Z,72.50
2017-09-04T18:30:57.300Z,72.90
2017-09-04T18:33:26.544Z,72.40
2017-09-04T18:35:55.888Z,73.10
2017-09-04T18:38:25.153Z,73.10
2017-09-04T18:40:54.435Z,72.90
2017-09-04T18:43:23.806Z,73.20
2017-09-04T18:45:53.339Z,73.60
2017-09-04T18:48:22.594Z,74.10
2017-09-04T18:50:51.946Z,74.50
2017-09-04T18:53:21.978Z,74.30
2017-09-04T18:55:51.676Z,74.30
2017-09-04T18:58:20.873Z,74.50
2017-09-04T19:00:50.175Z,74.30
2017-09-04T19:03:19.480Z,73.50
2017-09-04T19:05:48.746Z,73.40
2017-09-04T19:08:17.994Z,72.40
2017-09-04T19:10:47.293Z,71.30
2017-09-04T19:13:16.558Z,71.10
2017-09-04T19:15:45.814Z,70.30
2017-09-04T19:18:15.084Z,71.80
2017-09-04T19:20:44.352Z,70.50
2017-09-04T19:23:13.962Z,70.30
2017-09-04T19:25:43.496Z,71.70
2017-09-04T19:28:12.783Z,72.30
2017-09-04T19:30:42.026Z,73.10
2017-09-04T19:33:11.638Z,73.10
2017-09-04T19:35:41.108Z,73.30
2017-09-04T19:38:10.646Z,73.40
2017-09-04T19:40:39.866Z,72.50
2017-09-04T19:43:16.503Z,73.40
2017-09-04T19:45:45.755Z,73.30
2017-09-04T19:48:15.270Z,73.40
2017-09-04T19:50:44.537Z,73.10
2017-09-04T19:53:13.776Z,73.40
2017-09-04T19:55:43.068Z,73.50
2017-09-04T19:58:12.318Z,74.30
2017-09-04T20:00:41.735Z,74.80
2017-09-04T20:03:11.023Z,74.50
2017-09-04T20:05:40.281Z,74.70
2017-09-04T20:08:09.526Z,74.50
2017-09-04T20:10:38.813Z,74.80
2017-09-04T20:13:08.214Z,75.10
2017-09-04T20:15:37.475Z,74.30
2017-09-04T20:18:06.767Z,74.50
2017-09-04T20:20:36.099Z,75.20
2017-09-04T20:23:05.427Z,75.40
2017-09-04T20:25:34.699Z,75.20
2017-09-04T20:28:03.988Z,75.80
2017-09-04T20:30:33.341Z,76.20
2017-09-04T20:33:02.597Z,76.20
2017-09-04T20:35:31.850Z,75.70
2017-09-04T20:38:01.154Z,75.90
2017-09-04T20:40:30.437Z,76.70
2017-09-04T20:42:59.748Z,75.50
2017-09-04T20:45:29.002Z,75.80
2017-09-04T20:47:59.061Z,75.90
2017-09-04T20:50:28.339Z,75.00
2017-09-04T20:52:57.613Z,74.80
2017-09-04T20:55:26.861Z,74.90
2017-09-04T20:57:56.327Z,74.90
2017-09-04T21:00:25.567Z,74.20
2017-09-04T21:02:54.851Z,74.30
2017-09-04T21:05:24.166Z,75.00
2017-09-04T21:07:53.428Z,75.20
2017-09-04T21:10:22.705Z,75.10
2017-09-04T21:12:51.964Z,74.20
2017-09-04T21:15:21.285Z,74.40
2017-09-04T21:17:50.573Z,74.40
2017-09-04T21:20:19.822Z,74.70
2017-09-04T21:22:49.090Z,75.20
2017-09-04T21:25:18.409Z,74.30
2017-09-04T21:27:47.655Z,74.40
2017-09-04T21:30:16.939Z,74.50
2017-09-04T21:32:46.189Z,74.50
2017-09-04T21:35:16.177Z,74.40
2017-09-04T21:37:46.061Z,74.70
2017-09-04T21:40:15.307Z,74.90
2017-09-04T21:42:44.572Z,75.40
2017-09-04T21:45:13.850Z,75.80
2017-09-04T21:47:43.220Z,75.80
2017-09-04T21:50:12.530Z,75.30
2017-09-04T21:52:41.815Z,75.50
2017-09-04T21:55:11.085Z,75.60
2017-09-04T21:57:40.345Z,75.40
2017-09-04T22:00:09.621Z,75.50
2017-09-04T22:02:38.876Z,75.90
2017-09-04T22:05:08.201Z,76.00
2017-09-04T22:07:37.526Z,75.50
2017-09-04T22:10:06.779Z,75.50
2017-09-04T22:12:36.059Z,75.60
2017-09-04T22:15:05.877Z,75.60
2017-09-04T22:17:35.139Z,76.00
2017-09-04T22:20:04.645Z,75.90
2017-09-04T22:22:34.087Z,76.00
2017-09-04T22:25:03.491Z,76.30
2017-09-04T22:27:32.833Z,76.70
2017-09-04T22:30:02.077Z,76.20
2017-09-04T22:32:31.379Z,77.20
2017-09-04T22:35:00.730Z,76.00
2017-09-04T22:37:30.022Z,76.10
2017-09-04T22:39:59.298Z,76.70
2017-09-04T22:42:28.705Z,76.40
2017-09-04T22:44:57.983Z,75.80
2017-09-04T22:47:27.257Z,76.10
2017-09-04T22:49:56.520Z,76.70
2017-09-04T22:52:25.814Z,76.30
2017-09-04T22:54:55.055Z,75.90
2017-09-04T22:57:24.302Z,76.10
2017-09-04T22:59:53.601Z,76.50
2017-09-04T23:02:22.871Z,77.50
2017-09-04T23:04:52.109Z,77.50
2017-09-04T23:07:21.360Z,77.40
2017-09-04T23:09:50.656Z,76.40
2017-09-04T23:12:19.926Z,75.90
2017-09-04T23:14:49.191Z,75.90
2017-09-04T23:17:18.454Z,75.50
2017-09-04T23:19:47.680Z,75.70
2017-09-04T23:22:16.946Z,75.00
2017-09-04T23:24:46.210Z,74.00
2017-09-04T23:27:15.462Z,73.80
2017-09-04T23:29:44.833Z,74.70
2017-09-04T23:32:14.154Z,74.10
2017-09-04T23:34:43.414Z,74.30
2017-09-04T23:37:12.666Z,74.00
2017-09-04T23:39:41.913Z,74.00
2017-09-04T23:42:11.173Z,74.10
2017-09-04T23:44:40.440Z,74.00
2017-09-04T23:47:09.697Z,73.80
2017-09-04T23:49:39.014Z,74.00
2017-09-04T23:52:08.237Z,74.00
2017-09-04T23:54:37.629Z,74.50
2017-09-04T23:57:07.062Z,74.50
2017-09-04T23:59:36.378Z,74.40
